地図

経路データ

SID SEASON NUMBER BASIN SUBBASIN NAME ISO_TIME NATURE LAT LON WMO_WIND WMO_PRES WMO_AGENCY TRACK_TYPE DIST2LAND LANDFALL IFLAG USA_AGENCY USA_ATCF_ID USA_LAT USA_LON USA_RECORD USA_STATUS USA_WIND USA_PRES USA_SSHS USA_R34_NE USA_R34_SE USA_R34_SW USA_R34_NW USA_R50_NE USA_R50_SE USA_R50_SW USA_R50_NW USA_R64_NE USA_R64_SE USA_R64_SW USA_R64_NW USA_POCI USA_ROCI USA_RMW USA_EYE TOKYO_LAT TOKYO_LON TOKYO_GRADE TOKYO_WIND TOKYO_PRES TOKYO_R50_DIR TOKYO_R50_LONG TOKYO_R50_SHORT TOKYO_R30_DIR TOKYO_R30_LONG TOKYO_R30_SHORT TOKYO_LAND CMA_LAT CMA_LON CMA_CAT CMA_WIND CMA_PRES HKO_LAT HKO_LON HKO_CAT HKO_WIND HKO_PRES NEWDELHI_LAT NEWDELHI_LON NEWDELHI_GRADE NEWDELHI_WIND NEWDELHI_PRES NEWDELHI_CI NEWDELHI_DP NEWDELHI_POCI REUNION_LAT REUNION_LON REUNION_TYPE REUNION_WIND REUNION_PRES REUNION_TNUM REUNION_CI REUNION_RMW REUNION_R34_NE REUNION_R34_SE REUNION_R34_SW REUNION_R34_NW REUNION_R50_NE REUNION_R50_SE REUNION_R50_SW REUNION_R50_NW REUNION_R64_NE REUNION_R64_SE REUNION_R64_SW REUNION_R64_NW BOM_LAT BOM_LON BOM_TYPE BOM_WIND BOM_PRES BOM_TNUM BOM_CI BOM_RMW BOM_R34_NE BOM_R34_SE BOM_R34_SW BOM_R34_NW BOM_R50_NE BOM_R50_SE BOM_R50_SW BOM_R50_NW BOM_R64_NE BOM_R64_SE BOM_R64_SW BOM_R64_NW BOM_ROCI BOM_POCI BOM_EYE BOM_POS_METHOD BOM_PRES_METHOD NADI_LAT NADI_LON NADI_CAT NADI_WIND NADI_PRES WELLINGTON_LAT WELLINGTON_LON WELLINGTON_WIND WELLINGTON_PRES DS824_LAT DS824_LON DS824_STAGE DS824_WIND DS824_PRES TD9636_LAT TD9636_LON TD9636_STAGE TD9636_WIND TD9636_PRES TD9635_LAT TD9635_LON TD9635_WIND TD9635_PRES TD9635_ROCI NEUMANN_LAT NEUMANN_LON NEUMANN_CLASS NEUMANN_WIND NEUMANN_PRES MLC_LAT MLC_LON MLC_CLASS MLC_WIND MLC_PRES USA_GUST BOM_GUST BOM_GUST_PER REUNION_GUST REUNION_GUST_PER USA_SEAHGT USA_SEARAD_NE USA_SEARAD_SE USA_SEARAD_SW USA_SEARAD_NW STORM_SPEED STORM_DIR
1972210N19251 1972 64 EP MM BONNY 1972-07-27 12:00:00 TS 18.8000 -109.000 25 hurdat_epa main 389 389 O________OO___ hurdat_epa EP021972 18.8000 -109.000 TD 25 -1 18.8000 -109.000 TC 25 18.8000 -109.000 1 6 311
1972210N19251 1972 64 EP MM BONNY 1972-07-27 15:00:00 TS 19.0004 -109.245 main 398 398 P________PP___ EP021972 19.0052 -109.252 TD 27 -1 19.0052 -109.252 TC 27 18.9812 -109.214 1 6 310
1972210N19251 1972 64 EP MM BONNY 1972-07-27 18:00:00 TS 19.1940 -109.491 30 hurdat_epa main 414 391 O________OP___ hurdat_epa EP021972 19.2000 -109.500 TD 30 -1 19.2000 -109.500 TC 30 19.1698 -109.453 1 6 309
1972210N19251 1972 64 EP MM BONNY 1972-07-27 21:00:00 TS 19.3825 -109.752 main 391 369 P________PP___ EP021972 19.3847 -109.755 TD 32 -1 19.3847 -109.755 TC 32 19.3736 -109.740 1 7 305
1972210N19251 1972 64 EP MM BONNY 1972-07-28 00:00:00 TS 19.6000 -110.100 35 hurdat_epa main 369 339 O________OO___ hurdat_epa EP021972 19.6000 -110.100 TS 35 0 19.6000 -110.100 TC 35 19.6000 -110.100 2 9 302
1972210N19251 1972 64 EP MM BONNY 1972-07-28 03:00:00 TS 19.8848 -110.600 main 341 322 P________PP___ EP021972 19.8926 -110.612 TS 35 0 19.8926 -110.612 TC 35 19.8534 -110.551 2 12 300
1972210N19251 1972 64 EP MM BONNY 1972-07-28 06:00:00 TS 20.1855 -111.176 35 hurdat_epa main 326 319 O________OP___ hurdat_epa EP021972 20.2000 -111.200 TS 35 0 20.2000 -111.200 TC 35 20.1273 -111.080 2 12 298
1972210N19251 1972 64 EP MM BONNY 1972-07-28 09:00:00 TS 20.4422 -111.722 main 330 326 P________PP___ EP021972 20.4497 -111.735 TS 35 0 20.4497 -111.735 TC 35 20.4125 -111.670 2 12 296
1972210N19251 1972 64 EP MM BONNY 1972-07-28 12:00:00 TS 20.7000 -112.300 35 hurdat_epa main 341 341 O________OO___ hurdat_epa EP021972 20.7000 -112.300 TS 35 0 20.7000 -112.300 TC 35 20.7000 -112.300 2 13 296
1972210N19251 1972 64 EP MM BONNY 1972-07-28 15:00:00 TS 20.9998 -112.934 main 366 366 P________PP___ EP021972 20.9998 -112.928 TS 40 0 20.9998 -112.928 TC 40 20.9997 -112.959 2 14 296
1972210N19251 1972 64 EP MM BONNY 1972-07-28 18:00:00 TS 21.2991 -113.610 45 996 hurdat_epa main 402 402 O________OP___ hurdat_epa EP021972 21.3000 -113.600 TS 45 996 0 21.3000 -113.600 TC 45 996 21.2956 -113.649 2 14 294
1972210N19251 1972 64 EP MM BONNY 1972-07-28 21:00:00 TS 21.5717 -114.320 main 412 412 P________PP___ EP021972 21.5726 -114.315 TS 42 0 21.5726 -114.315 TC 42 21.5685 -114.340 2 14 291
1972210N19251 1972 64 EP MM BONNY 1972-07-29 00:00:00 TS 21.8000 -115.000 40 hurdat_epa main 439 439 O________OO___ hurdat_epa EP021972 21.8000 -115.000 TS 40 0 21.8000 -115.000 TC 40 21.8000 -115.000 2 12 289
1972210N19251 1972 64 EP MM BONNY 1972-07-29 03:00:00 TS 21.9745 -115.584 main 467 467 P________PP___ EP021972 21.9721 -115.573 TS 40 0 21.9721 -115.573 TC 40 21.9840 -115.631 2 11 286
1972210N19251 1972 64 EP MM BONNY 1972-07-29 06:00:00 TS 22.1049 -116.124 40 hurdat_epa main 499 499 O________OP___ hurdat_epa EP021972 22.1000 -116.100 TS 40 0 22.1000 -116.100 TC 40 22.1248 -116.221 2 11 283
1972210N19251 1972 64 EP MM BONNY 1972-07-29 09:00:00 TS 22.2177 -116.700 main 542 542 P________PP___ EP021972 22.2151 -116.688 TS 40 0 22.2151 -116.688 TC 40 22.2281 -116.750 2 10 281
1972210N19251 1972 64 EP MM BONNY 1972-07-29 12:00:00 TS 22.3000 -117.200 40 hurdat_epa main 580 580 O________OO___ hurdat_epa EP021972 22.3000 -117.200 TS 40 0 22.3000 -117.200 TC 40 22.3000 -117.200 2 8 281
1972210N19251 1972 64 EP MM BONNY 1972-07-29 15:00:00 TS 22.3648 -117.549 main 602 602 P________PP___ EP021972 22.3647 -117.545 TS 37 0 22.3647 -117.545 TC 37 22.3650 -117.567 2 6 280
1972210N19251 1972 64 EP MM BONNY 1972-07-29 18:00:00 TS 22.4003 -117.811 35 996 hurdat_epa main 630 630 O________OP___ hurdat_epa EP021972 22.4000 -117.800 TS 35 996 0 22.4000 -117.800 TC 35 996 22.4014 -117.855 2 5 276
1972210N19251 1972 64 EP MM BONNY 1972-07-29 21:00:00 TS 22.4144 -118.070 main 653 653 P________PP___ EP021972 22.4150 -118.065 TS 30 -1 22.4150 -118.065 TC 30 22.4121 -118.091 2 5 270
1972210N19251 1972 64 EP MM BONNY 1972-07-30 00:00:00 TS 22.4000 -118.300 25 hurdat_epa main 665 665 O________OO___ hurdat_epa EP021972 22.4000 -118.300 TD 25 -1 22.4000 -118.300 TC 25 22.4000 -118.300 2 4 262
1972210N19251 1972 64 EP MM BONNY 1972-07-30 03:00:00 TS 22.3595 -118.506 main 677 677 P________PP___ EP021972 22.3574 -118.508 TD 25 -1 22.3574 -118.508 TC 25 22.3679 -118.502 2 4 255
1972210N19251 1972 64 EP MM BONNY 1972-07-30 06:00:00 TS 22.3032 -118.700 25 hurdat_epa main 698 698 O________OP___ hurdat_epa EP021972 22.3000 -118.700 TD 25 -1 22.3000 -118.700 TC 25 22.3206 -118.703 2 4 253
1972210N19251 1972 64 EP MM BONNY 1972-07-30 09:00:00 TS 22.2513 -118.880 main 711 711 P________PP___ EP021972 22.2499 -118.877 TD 25 -1 22.2499 -118.877 TC 25 22.2629 -118.902 2 4 254
1972210N19251 1972 64 EP MM BONNY 1972-07-30 12:00:00 TS 22.2000 -119.100 25 hurdat_epa main 732 732 O________OO___ hurdat_epa EP021972 22.2000 -119.100 TD 25 -1 22.2000 -119.100 TC 25 22.2000 -119.100 6 5 259
1972210N19251 1972 64 EP MM BONNY 1972-07-30 15:00:00 TS 22.1503 -119.420 main 752 752 P________P____ EP021972 22.1503 -119.420 TD 25 -1 22.1503 -119.420 TC 25 6 7 261
1972210N19251 1972 64 EP MM BONNY 1972-07-30 18:00:00 TS 22.1000 -119.800 25 hurdat_epa main 788 O________O____ hurdat_epa EP021972 22.1000 -119.800 TD 25 -1 22.1000 -119.800 TC 25 6 7 262

IBTrACS Databaseについて

本データベースは、米国NOAAが公開する1842年以降の世界の熱帯低気圧のベストトラックデータアーカイブInternational Best Track Archive for Climate Stewardship (IBTrACS)を、ウェブで閲覧しやすい形式に変換したものです。

最終更新日:2021-12-01